KOCW/OCW METAR and TAF weather

Enter ICAO airport designator
Station Type Date Time Source
KOCW METAR 2021/07/24 20:15 UTC NOAA

KOCW 242015Z AUTO 11005KT 10SM SCT044 SCT055 28/18 A3010 RMK AO2 T02820180


Station Type Date Time Source
KOCW Decoded METAR 2021/07/24 20:15 UTC NOAA

Washington, Warren Field Airport, NC, United States (KOCW) 35-34-14N 077-02-59W
Jul 24, 2021 - 04:15 PM EDT / 2021.07.24 2015 UTC
Wind: from the ESE (110 degrees) at 6 MPH (5 KT):0
Visibility: 10 mile(s):0
Sky conditions: partly cloudy
Temperature: 82.8 F (28.2 C)
Dew Point: 64.4 F (18.0 C)
Relative Humidity: 53%
Pressure (altimeter): 30.1 in. Hg (1019 hPa)
ob: KOCW 242015Z AUTO 11005KT 10SM SCT044 SCT055 28/18 A3010 RMK AO2 T02820180
cycle: 20

Station Type Date Time Source
KOCW TAF UTC NOAA

Error!

Example: see airport list